Sierra Nevada Aquatic Research Lab (SNARL) Reserve, Santa Monica Mtns, California Weather observations

Data are for 10 minute period ending at time listed.
 Day   Time   Solar   Ave.   Ave.  Ave.  Vector  Max.   Baro.   Total    
  of    of     Rad.   Air    Rel.  Wind   Wind   Wind  Press.  Precip.   
Year   Day            Temp.  Hum.  Speed  Dir.   Gust                    
2015   (PST)  Kw/m2    F      %     mph   deg.    mph    mb.     in.     
-------------------------------------------------------------------------
  61    6:50   0.01    9.8    90    2.6   234     3.9   773.3    0.00 
  61    7:00   0.02   11.6    91    2.1   296     4.9   773.2    0.00 
  61    7:10   0.04   12.3    89    1.8   307     4.8   773.3    0.00 
  61    7:20   0.10   14.1    90    1.3   297     4.0   773.3    0.00 
  61    7:30   0.10   17.8    84    1.7     4     3.7   773.4    0.00 
  61    7:40   0.14   18.7    84    1.3   317     3.6   773.5    0.00 
  61    7:50   0.16   23.0    76    0.9    13     2.8   773.5    0.00 
  61    8:00   0.19   22.2    76    1.1   329     2.8   773.7    0.00 
  61    8:10   0.21   24.8    77    1.2   204     2.4   773.8    0.00 
  61    8:20   0.24   26.9    73    1.8   156     3.4   773.9    0.00 
  61    8:30   0.19   28.7    70    1.5    74     3.7   773.9    0.01 
  61    8:40   0.27   27.7    74    1.7   321     3.9   774.0    0.00 
  61    8:50   0.29   28.0    75    2.7   333     4.4   774.0    0.00 
  61    9:00   0.35   30.4    72    0.9   233     2.9   774.0    0.00 
  61    9:10   0.57   32.7    68    2.0   206     3.7   774.0    0.00 
  61    9:20   0.52   33.5    64    0.9   225     2.9   774.0    0.01 
  61    9:30   0.62   35.7    59    1.7   172     3.9   774.0    0.00 
  61    9:40   0.53   34.1    60    3.4   139     5.6   774.0    0.00 
  61    9:50   0.61   34.4    57    1.8   103     4.4   774.0    0.00 
  61   10:00   0.64   34.0    57    1.9    88     6.9   773.9    0.00 
  61   10:10   0.63   34.9    61    4.2   105     6.9   773.8    0.00 
  61   10:20   0.58   34.3    61    4.6   111     7.7   773.8    0.00 
  61   10:30   0.35   33.6    62    4.2    92     8.8   773.9    0.00 
  61   10:40   0.51   33.7    59    2.9    82     8.7   773.8    0.00 
  61   10:50   0.68   34.2    59    3.4    45     7.4   773.8    0.00 
  61   11:00   0.43   34.9    58    2.4   328     5.3   773.7    0.00 
  61   11:10   0.73   34.4    60    3.5   346     6.4   773.7    0.00 
  61   11:20   0.55   34.4    61    5.7   325     9.6   773.7    0.00 
  61   11:30   0.22   32.6    61    4.0   313     7.7   773.8    0.00 
  61   11:40   0.25   32.4    59    2.9   214     5.8   773.8    0.00 
  61   11:50   0.33   33.0    60    4.0   194     5.6   773.8    0.00 
  61   12:00   0.49   33.4    60    2.8   307     6.8   773.8    0.00 
  61   12:10   0.84   35.4    57    1.3    90     5.0   773.7    0.00 
  61   12:20   0.59   36.0    54    3.8    27     7.2   773.6    0.00 
  61   12:30   0.52   35.4    54    3.3    35     6.0   773.5    0.00 
  61   12:40   0.29   34.2    62    8.8    94    14.8   773.4    0.00 
  61   12:50   0.29   33.2    63    7.9    98    12.3   773.5    0.00 
  61   13:00   0.88   35.1    61    8.1    95    11.6   773.4    0.00 
  61   13:10   0.52   35.3    58    9.5   103    12.7   773.3    0.00 
  61   13:20   0.32   34.4    59    7.1    89    11.5   773.3    0.00 
  61   13:30   0.28   34.3    58    5.2    69     9.4   773.3    0.00 
  61   13:40   0.17   34.2    63    5.2    38    10.2   773.3    0.00 
  61   13:50   0.16   33.6    67    5.1    54    11.5   773.4    0.00 
  61   14:00   0.22   33.5    68    4.4    56     7.8   773.5    0.00 
  61   14:10   0.46   34.5    64    5.2    77     8.3   773.5    0.00 
  61   14:20   0.19   34.8    60    6.5   101    11.4   773.6    0.00 
  61   14:30   0.48   34.7    60    5.7   104     9.9   773.7    0.00 
  61   14:40   0.60   36.2    56    6.3   101    11.2   773.7    0.00 
  61   14:50   0.33   36.0    55    7.2   113    10.8   773.7    0.00 
  61   15:00   0.15   34.8    58    7.0   107    10.2   773.8    0.00 
  61   15:10   0.45   35.3    56    6.2   104    10.1   773.8    0.00 
  61   15:20   0.33   36.8    52    3.2   103     6.7   773.8    0.00 
  61   15:30   0.47   37.2    52    4.9    76    11.4   773.8    0.00 
  61   15:40   0.26   36.6    53    7.9    77    12.2   773.8    0.00 
  61   15:50   0.18   35.6    57    6.8    90    10.2   773.9    0.00 
  61   16:00   0.10   34.7    59    6.8    82     9.7   774.0    0.00 
  61   16:10   0.07   33.8    66    7.3    50    12.4   774.2    0.00 
  61   16:20   0.07   33.0    69    4.4    66     7.3   774.4    0.00 
  61   16:30   0.06   32.8    68    4.8    62     8.4   774.4    0.00 
  61   16:40   0.08   32.7    66    4.4    70     8.0   774.5    0.00 
  61   16:50   0.06   32.7    67    4.3    85     8.0   774.6    0.00 
  61   17:00   0.08   32.2    71    8.7   105    12.6   774.7    0.00 
  61   17:10   0.05   31.4    75    9.7   109    12.8   774.8    0.00 
  61   17:20   0.03   30.8    75    8.8   118    11.8   774.9    0.00 
  61   17:30   0.04   31.0    72    9.3   121    12.4   775.0    0.00 
  61   17:40   0.03   31.5    67    9.3   125    12.3   775.1    0.00 
  61   17:50   0.01   31.3    66    8.3   118    11.2   775.1    0.00 
  61   18:00   0.00   30.9    66    7.9   110    10.4   775.2    0.00 
  61   18:10   0.00   30.5    68    7.2   113    10.4   775.3    0.00 
  61   18:20   0.00   30.4    68    7.6   112    10.2   775.4    0.00 
  61   18:30   0.00   30.3    69    7.1   117    10.4   775.5    0.00 
  61   18:40   0.00   29.7    72    4.2   153     8.0   775.6    0.00 
  61   18:50   0.00   28.5    76    2.8   234     4.9   775.8    0.00 
  61   19:00   0.00   28.0    78    2.1    61     3.3   776.0    0.00 
  61   19:10   0.00   28.7    76    2.1    21     2.9   776.1    0.00 
  61   19:20   0.00   28.3    78    3.1   244     4.9   776.3    0.00 
  61   19:30   0.00   27.4    81    2.4   225     5.0   776.5    0.00 
  61   19:40   0.00   27.9    80    0.9   156     2.2   776.7    0.00 
  61   19:50   0.00   28.5    79    0.3   266     1.5   776.8    0.00 
  61   20:00   0.00   28.6    79    0.4   230     1.2   777.0    0.00 
  61   20:10   0.00   28.7    79    0.8   265     1.7   777.1    0.00 
  61   20:20   0.00   28.7    80    0.5   225     1.9   777.2    0.00 
  61   20:30   0.00   28.6    81    1.4   200     2.5   777.3    0.00 
  61   20:40   0.00   28.5    81    2.4   202     3.6   777.3    0.00 
  61   20:50   0.00   28.2    81    3.3   199     3.9   777.4    0.00 
  61   21:00   0.00   27.7    83    4.4   199     5.6   777.5    0.00 
  61   21:10   0.00   27.6    84    3.9   203     4.8   777.7    0.00 
  61   21:20   0.00   27.4    85    4.5   200     5.1   777.7    0.00 
  61   21:30   0.00   27.2    87    3.5   196     4.5   777.9    0.00 
  61   21:40   0.00   26.9    85    3.0   207     4.5   777.9    0.00 
  61   21:50   0.00   25.7    84    3.4   221     4.6   778.0    0.00 
  61   22:00   0.00   24.8    84    2.1   222     3.6   778.0    0.00 
  61   22:10   0.00   24.3    83    0.5   204     1.6   778.0    0.00 
  61   22:20   0.00   24.1    84    0.2   144     1.1   778.1    0.00 
  61   22:30   0.00   23.8    86    0.9   267     2.7   778.1    0.00 
  61   22:40   0.00   24.0    87    1.9   232     3.4   778.2    0.00 
  61   22:50   0.00   24.2    87    0.7   181     1.9   778.3    0.00 
  61   23:00   0.00   24.2    87    0.4   127     1.9   778.3    0.00 
  61   23:10   0.00   23.5    84    0.8   227     2.3   778.3    0.00 
  61   23:20   0.00   23.6    80    2.9   273     5.0   778.3    0.00 
  61   23:30   0.00   23.6    80    2.7   317     4.2   778.4    0.00 
  61   23:40   0.00   22.8    81    1.3   210     2.0   778.4    0.00 
  61   23:50   0.00   21.7    83    1.3   271     2.8   778.4    0.00 
  62    0:00   0.00   20.2    84    1.8   215     3.1   778.4    0.00 
  62    0:10   0.00   19.9    86    1.4   231     2.7   778.5    0.00 
  62    0:20   0.00   20.2    86    1.4   236     2.3   778.5    0.00 
  62    0:30   0.00   20.7    87    1.6   259     2.8   778.4    0.00 
  62    0:40   0.00   21.4    86    1.1    24     2.0   778.5    0.00 
  62    0:50   0.00   21.3    88    0.6    97     1.3   778.5    0.00 
  62    1:00   0.00   21.7    87    0.9   185     2.4   778.5    0.00 
  62    1:10   0.00   22.8    84    0.8   354     3.4   778.5    0.00 
  62    1:20   0.00   23.8    83    3.8   342     5.0   778.5    0.00 
  62    1:30   0.00   24.3    83    3.5   295     5.8   778.6    0.00 
  62    1:40   0.00   24.3    81    1.1   155     2.9   778.6    0.00 
  62    1:50   0.00   24.7    81    0.1   110     1.1   778.6    0.00 
  62    2:00   0.00   24.1    83    0.4    93     1.3   778.6    0.00 
  62    2:10   0.00   23.2    84    1.3    78     2.6   778.5    0.00 
  62    2:20   0.00   21.7    84    0.9    91     2.2   778.5    0.00 
  62    2:30   0.00   21.1    86    1.2    43     2.8   778.4    0.00 
  62    2:40   0.00   19.2    86    0.7   323     2.4   778.3    0.00 
  62    2:50   0.00   18.3    90    1.0   318     3.4   778.2    0.00 
  62    3:00   0.00   17.7    90    0.4   318     1.2   778.1    0.00 
  62    3:10   0.00   17.4    92    0.8   247     2.0   778.0    0.00 
  62    3:20   0.00   16.2    91    0.8   239     3.0   778.0    0.00 
  62    3:30   0.00   16.1    89    1.7   252     5.2   778.0    0.00 
  62    3:40   0.00   16.1    89    2.1   253     3.6   778.0    0.00 
  62    3:50   0.00   15.6    87    2.4   246     3.1   778.0    0.00 
  62    4:00   0.00   14.6    88    2.3   225     3.5   777.9    0.00 
  62    4:10   0.00   14.5    89    1.2   258     2.5   778.0    0.00 
  62    4:20   0.00   14.1    90    0.5   241     2.6   778.1    0.00 
  62    4:30   0.00   14.2    89    0.7   302     2.6   778.1    0.00 
  62    4:40   0.00   13.9    89    2.3   303     3.5   778.0    0.00 
  62    4:50   0.00   13.4    87    1.4   235     2.4   778.0    0.00 
  62    5:00   0.00   12.3    87    0.9   195     2.1   777.9    0.00 
  62    5:10   0.00   12.3    91    0.2    32     0.9   778.0    0.00 
  62    5:20   0.00   11.3    90    0.7   198     2.2   777.9    0.00 
  62    5:30   0.00   12.1    90    0.5   136     2.0   777.9    0.00 
  62    5:40   0.00   12.1    88    0.2   138     1.1   778.0    0.00 
  62    5:50   0.00   11.7    88    1.1   202     1.7   778.0    0.00 
  62    6:00   0.00   11.0    86    0.4   202     1.9   777.9    0.00 
  62    6:10   0.00   10.8    89    0.6   156     1.8   777.8    0.00 
  62    6:20   0.00   10.4    90    0.1    84     1.2   777.6    0.00 
  62    6:30   0.00   11.3    88    0.7    63     1.8   777.6    0.00 
  62    6:40   0.01   10.8    87    2.0    91     2.9   777.7    0.00 

Return to SNARL Reserve graphs page.


Western Regional Climate Center,wrcc@dri.edu